41XA weather

Saber Heliport
Spring Branch, Texas, United States

Public forecast

Using degrees Fahrenheit for public forecast. Weather courtesy of forecast.io.

Closest aviation weather report (METAR) to Saber Heliport

Closest report is Boerne Stage Field, 13.7 nm (25.4 km) WSW. Retrieved 2020/08/06 12:35 UTC (1 hour ago):

K5C1 061235Z AUTO 20004KT 10SM BKN012 OVC017 23/23 A3005 RMK AO1

Closest aviation forecast (TAF) to Saber Heliport

Closest forecast is San Antonio International Airport, 17.9 nm (33.1 km) S. Retrieved 2020/08/06 12:42 UTC (1 hour ago):

TAF KSAT 061138Z 0612/0718 18007KT P6SM BKN011 FM061500 18009KT P6SM FEW035 FM061900 14012KT P6SM FEW050 FM070800 17007KT P6SM BKN011 FM071600 17010KT P6SM SCT050